createdAt,value
2018-01-12T00:00:47.643Z,87.43
2018-01-12T00:03:15.187Z,87.63
2018-01-12T00:05:42.731Z,86.90
2018-01-12T00:08:10.286Z,87.19
2018-01-12T00:10:37.835Z,87.21
2018-01-12T00:13:05.597Z,87.57
2018-01-12T00:15:33.190Z,87.22
2018-01-12T00:18:00.719Z,87.32
2018-01-12T00:20:28.259Z,87.28
2018-01-12T00:22:55.798Z,87.23
2018-01-12T00:25:23.482Z,87.30
2018-01-12T00:27:51.299Z,87.47
2018-01-12T00:30:18.844Z,87.75
2018-01-12T00:32:46.396Z,87.38
2018-01-12T00:35:14.054Z,87.38
2018-01-12T00:37:41.642Z,87.45
2018-01-12T00:40:09.290Z,86.93
2018-01-12T00:42:37.109Z,87.05
2018-01-12T00:45:04.826Z,86.18
2018-01-12T00:47:32.645Z,86.33
2018-01-12T00:50:00.363Z,86.63
2018-01-12T00:52:27.944Z,86.65
2018-01-12T00:54:55.520Z,86.80
2018-01-12T00:57:23.114Z,86.60
2018-01-12T00:59:50.681Z,86.40
2018-01-12T01:02:18.257Z,86.44
2018-01-12T01:04:45.798Z,86.61
2018-01-12T01:07:13.590Z,87.37
2018-01-12T01:09:41.211Z,87.70
2018-01-12T01:12:08.751Z,86.83
2018-01-12T01:14:36.443Z,86.90
2018-01-12T01:17:03.985Z,86.64
2018-01-12T01:19:31.523Z,86.58
2018-01-12T01:21:59.069Z,86.58
2018-01-12T01:24:26.713Z,86.31
2018-01-12T01:26:54.323Z,85.85
2018-01-12T01:29:21.854Z,86.33
2018-01-12T01:31:49.770Z,86.67
2018-01-12T01:34:17.318Z,86.63
2018-01-12T01:36:44.863Z,86.49
2018-01-12T01:39:12.480Z,86.60
2018-01-12T01:41:40.015Z,86.23
2018-01-12T01:44:07.551Z,86.02
2018-01-12T01:46:35.179Z,85.83
2018-01-12T01:49:02.733Z,85.59
2018-01-12T01:51:30.283Z,85.07
2018-01-12T01:53:57.817Z,85.86
2018-01-12T01:56:25.467Z,86.74
2018-01-12T01:58:53.263Z,87.12
2018-01-12T02:01:20.980Z,87.08
2018-01-12T02:03:48.548Z,87.04
2018-01-12T02:06:16.218Z,86.97
2018-01-12T02:08:43.801Z,86.64
2018-01-12T02:11:11.340Z,85.81
2018-01-12T02:13:38.975Z,85.59
2018-01-12T02:16:06.695Z,85.52
2018-01-12T02:18:34.306Z,85.82
2018-01-12T02:21:01.891Z,86.89
2018-01-12T02:23:29.533Z,87.13
2018-01-12T02:25:57.150Z,87.22
2018-01-12T02:28:24.689Z,87.03
2018-01-12T02:30:52.239Z,86.25
2018-01-12T02:33:20.013Z,85.96
2018-01-12T02:35:47.611Z,85.91
2018-01-12T02:38:15.138Z,85.49
2018-01-12T02:40:42.676Z,85.32
2018-01-12T02:43:10.288Z,85.60
2018-01-12T02:45:37.872Z,85.65
2018-01-12T02:48:05.620Z,85.49
2018-01-12T02:50:33.190Z,85.22
2018-01-12T02:53:00.923Z,85.08
2018-01-12T02:55:28.577Z,84.81
2018-01-12T02:57:56.392Z,84.91
2018-01-12T03:00:24.019Z,84.64
2018-01-12T03:02:51.610Z,84.59
2018-01-12T03:05:19.250Z,84.61
2018-01-12T03:07:46.791Z,84.12
2018-01-12T03:10:14.382Z,84.38
2018-01-12T03:12:42.008Z,84.34
2018-01-12T03:15:09.586Z,84.85
2018-01-12T03:17:37.130Z,84.73
2018-01-12T03:20:04.694Z,84.90
2018-01-12T03:22:32.471Z,84.85
2018-01-12T03:25:00.191Z,85.18
2018-01-12T03:27:27.811Z,85.50
2018-01-12T03:29:55.492Z,85.56
2018-01-12T03:32:23.033Z,85.82
2018-01-12T03:34:50.655Z,85.72
2018-01-12T03:37:18.226Z,86.06
2018-01-12T03:39:45.760Z,86.19
2018-01-12T03:42:13.306Z,86.13
2018-01-12T03:44:41.032Z,85.98
2018-01-12T03:47:08.755Z,86.42
2018-01-12T03:49:36.304Z,86.55
2018-01-12T03:52:04.063Z,86.61
2018-01-12T03:54:31.642Z,86.82
2018-01-12T03:56:59.183Z,86.52
2018-01-12T03:59:26.966Z,86.46
2018-01-12T04:01:54.511Z,86.57
2018-01-12T04:04:22.277Z,86.44
2018-01-12T04:06:49.888Z,86.08
2018-01-12T04:09:17.518Z,85.49
2018-01-12T04:11:45.098Z,85.45
2018-01-12T04:14:12.635Z,85.66
2018-01-12T04:16:40.171Z,85.84
2018-01-12T04:19:07.719Z,85.95
2018-01-12T04:21:35.278Z,85.97
2018-01-12T04:24:02.976Z,85.92
2018-01-12T04:26:30.511Z,86.23
2018-01-12T04:28:58.235Z,86.22
2018-01-12T04:31:25.782Z,86.23
2018-01-12T04:33:53.395Z,86.40
2018-01-12T04:36:20.984Z,86.29
2018-01-12T04:38:48.633Z,86.56
2018-01-12T04:41:16.346Z,86.70
2018-01-12T04:43:43.961Z,86.52
2018-01-12T04:46:11.646Z,86.54
2018-01-12T04:48:39.299Z,86.60
2018-01-12T04:51:06.871Z,86.40
2018-01-12T04:53:34.410Z,85.88
2018-01-12T04:56:02.152Z,86.07
2018-01-12T04:58:29.692Z,86.23
2018-01-12T05:00:57.445Z,85.45
2018-01-12T05:03:24.986Z,85.59
2018-01-12T05:05:52.531Z,85.34
2018-01-12T05:08:20.160Z,85.61
2018-01-12T05:10:47.698Z,85.43
2018-01-12T05:13:15.288Z,85.66
2018-01-12T05:15:42.831Z,85.90
2018-01-12T05:18:10.370Z,85.47
2018-01-12T05:20:38.132Z,85.34
2018-01-12T05:23:05.690Z,85.63
2018-01-12T05:25:33.370Z,85.56
2018-01-12T05:28:00.910Z,85.78
2018-01-12T05:30:28.449Z,85.66
2018-01-12T05:32:55.994Z,85.95
2018-01-12T05:35:23.572Z,86.83
2018-01-12T05:37:51.211Z,86.09
2018-01-12T05:40:18.954Z,86.23
2018-01-12T05:42:46.694Z,86.67
2018-01-12T05:45:14.301Z,86.81
2018-01-12T05:47:41.927Z,87.23
2018-01-12T05:50:09.656Z,87.40
2018-01-12T05:52:37.188Z,87.52
2018-01-12T05:55:04.726Z,87.79
2018-01-12T05:57:32.291Z,87.72
2018-01-12T05:59:59.878Z,87.85
2018-01-12T06:02:39.279Z,87.81
2018-01-12T06:05:18.734Z,88.12
2018-01-12T06:07:46.277Z,88.12
2018-01-12T06:10:13.818Z,88.43
2018-01-12T06:12:41.354Z,88.46
2018-01-12T06:15:08.906Z,88.40
2018-01-12T06:17:36.542Z,88.31
2018-01-12T06:20:04.110Z,88.09
2018-01-12T06:22:31.962Z,88.10
2018-01-12T06:24:59.507Z,88.48
2018-01-12T06:27:27.295Z,88.75
2018-01-12T06:29:54.858Z,88.31
2018-01-12T06:32:22.537Z,88.17
2018-01-12T06:34:50.249Z,88.04
2018-01-12T06:37:17.798Z,87.43
2018-01-12T06:39:45.491Z,87.22
2018-01-12T06:42:13.025Z,86.92
2018-01-12T06:44:40.567Z,86.86
2018-01-12T06:47:08.263Z,86.55
2018-01-12T06:49:35.798Z,86.50
2018-01-12T06:52:03.395Z,86.63
2018-01-12T06:54:30.930Z,86.67
2018-01-12T06:56:58.470Z,87.02
2018-01-12T06:59:26.092Z,86.49
2018-01-12T07:01:53.593Z,86.79
2018-01-12T07:04:21.139Z,86.73
2018-01-12T07:06:48.694Z,86.57
2018-01-12T07:09:16.265Z,86.89
2018-01-12T07:11:43.919Z,86.54
2018-01-12T07:14:11.502Z,86.19
2018-01-12T07:16:39.155Z,86.14
2018-01-12T07:19:06.683Z,85.87
2018-01-12T07:24:36.136Z,86.51
2018-01-12T07:27:03.735Z,86.42
2018-01-12T07:29:31.276Z,86.22
2018-01-12T07:31:58.978Z,86.97
2018-01-12T07:34:26.668Z,87.45
2018-01-12T07:36:54.206Z,88.03
2018-01-12T07:39:21.843Z,87.59
2018-01-12T07:41:49.559Z,87.21
2018-01-12T07:44:17.147Z,87.27
2018-01-12T07:46:44.690Z,87.62
2018-01-12T07:49:12.230Z,87.90
2018-01-12T07:51:39.838Z,87.80
2018-01-12T07:54:07.375Z,87.04
2018-01-12T07:56:34.910Z,87.10
2018-01-12T07:59:02.515Z,86.71
2018-01-12T08:01:35.905Z,86.78
2018-01-12T08:04:03.499Z,86.40
2018-01-12T08:06:31.242Z,86.10
2018-01-12T08:08:58.870Z,85.67
2018-01-12T08:11:26.421Z,85.99
2018-01-12T08:13:54.101Z,86.51
2018-01-12T08:16:21.923Z,86.25
2018-01-12T08:18:49.558Z,85.68
2018-01-12T08:21:17.266Z,85.54
2018-01-12T08:23:45.060Z,85.57
2018-01-12T08:26:12.610Z,85.90
2018-01-12T08:28:40.411Z,85.98
2018-01-12T08:31:07.972Z,86.34
2018-01-12T08:33:35.651Z,86.16
2018-01-12T08:36:03.194Z,85.64
2018-01-12T08:38:30.734Z,85.57
2018-01-12T08:40:58.322Z,85.08
2018-01-12T08:43:25.908Z,85.07
2018-01-12T08:45:53.462Z,84.84
2018-01-12T08:48:21.022Z,85.10
2018-01-12T08:50:48.559Z,85.28
2018-01-12T08:53:16.142Z,85.77
2018-01-12T08:55:43.806Z,85.73
2018-01-12T08:58:11.348Z,85.11
2018-01-12T09:00:38.910Z,85.40
2018-01-12T09:03:06.454Z,85.28
2018-01-12T09:05:34.062Z,85.48
2018-01-12T09:08:01.702Z,85.77
2018-01-12T09:10:29.377Z,85.75
2018-01-12T09:12:56.993Z,84.96
2018-01-12T09:15:29.503Z,84.76
2018-01-12T09:18:00.929Z,84.02
2018-01-12T09:20:35.418Z,84.40
2018-01-12T09:26:06.910Z,84.38
2018-01-12T09:28:34.454Z,84.49
2018-01-12T09:31:03.010Z,84.39
2018-01-12T09:33:30.658Z,84.39
2018-01-12T09:35:58.191Z,83.76
2018-01-12T09:41:20.994Z,84.05
2018-01-12T09:43:48.578Z,84.12
2018-01-12T09:46:16.114Z,83.66
2018-01-12T09:48:51.672Z,84.06
2018-01-12T09:51:19.201Z,84.34
2018-01-12T09:53:46.834Z,84.45
2018-01-12T09:56:14.382Z,84.19
2018-01-12T09:58:44.888Z,84.01
2018-01-12T10:04:27.363Z,84.54
2018-01-12T10:06:55.225Z,84.81
2018-01-12T10:09:30.719Z,84.87
2018-01-12T10:11:58.376Z,84.99
2018-01-12T10:14:25.906Z,84.47
2018-01-12T10:16:53.598Z,84.18
2018-01-12T10:19:21.215Z,84.22
2018-01-12T10:21:48.767Z,84.60
2018-01-12T10:24:16.310Z,84.98
2018-01-12T10:26:43.966Z,85.05
2018-01-12T10:29:11.780Z,85.09
2018-01-12T10:31:55.254Z,84.96
2018-01-12T10:37:25.914Z,85.37
2018-01-12T10:40:01.454Z,85.32
2018-01-12T10:42:29.078Z,84.82
2018-01-12T10:44:56.653Z,84.27
2018-01-12T10:47:27.130Z,84.74
2018-01-12T10:53:00.294Z,85.00
2018-01-12T10:55:27.954Z,85.03
2018-01-12T10:57:55.546Z,85.22
2018-01-12T11:00:33.488Z,83.79
2018-01-12T11:03:01.035Z,84.14
2018-01-12T11:05:28.722Z,84.02
2018-01-12T11:07:56.262Z,84.10
2018-01-12T11:10:23.954Z,85.04
2018-01-12T11:12:51.762Z,85.75
2018-01-12T11:15:19.406Z,86.45
2018-01-12T11:17:47.131Z,86.35
2018-01-12T11:20:14.677Z,86.31
2018-01-12T11:22:42.408Z,87.39
2018-01-12T11:25:10.012Z,87.85
2018-01-12T11:27:37.562Z,87.82
2018-01-12T11:30:05.300Z,87.65
2018-01-12T11:32:32.997Z,86.81
2018-01-12T11:35:00.639Z,87.22
2018-01-12T11:37:28.186Z,87.50
2018-01-12T11:39:56.007Z,86.96
2018-01-12T11:42:23.789Z,87.14
2018-01-12T11:44:51.323Z,86.91
2018-01-12T11:47:18.919Z,86.55
2018-01-12T11:49:46.642Z,85.83
2018-01-12T11:52:14.187Z,85.19
2018-01-12T11:54:41.912Z,85.46
2018-01-12T11:57:09.486Z,84.67
2018-01-12T11:59:37.262Z,84.88
2018-01-12T12:02:04.993Z,84.97
2018-01-12T12:04:32.684Z,84.93
2018-01-12T12:07:00.274Z,85.30
2018-01-12T12:09:27.986Z,85.09
2018-01-12T12:11:55.713Z,85.12
2018-01-12T12:14:23.266Z,84.81
2018-01-12T12:16:50.942Z,85.05
2018-01-12T12:19:18.546Z,85.21
2018-01-12T12:21:46.178Z,85.66
2018-01-12T12:24:13.718Z,85.85
2018-01-12T12:26:41.263Z,86.08
2018-01-12T12:29:08.934Z,86.73
2018-01-12T12:31:36.649Z,86.73
2018-01-12T12:34:04.235Z,86.29
2018-01-12T12:36:31.766Z,86.26
2018-01-12T12:38:59.513Z,85.87
2018-01-12T12:41:27.058Z,85.77
2018-01-12T12:43:54.590Z,85.65
2018-01-12T12:46:22.122Z,85.53
2018-01-12T12:48:49.682Z,85.46
2018-01-12T12:51:17.230Z,85.38
2018-01-12T12:53:44.778Z,85.47
2018-01-12T12:56:13.118Z,85.44
2018-01-12T12:58:40.874Z,85.80
2018-01-12T13:01:08.640Z,86.07
2018-01-12T13:03:36.327Z,86.11
2018-01-12T13:06:03.887Z,85.88
2018-01-12T13:08:31.434Z,85.70
2018-01-12T13:10:58.978Z,85.39
2018-01-12T13:13:26.586Z,85.56
2018-01-12T13:15:54.150Z,85.71
2018-01-12T13:18:21.718Z,85.61
2018-01-12T13:20:49.262Z,85.57
2018-01-12T13:23:16.801Z,86.08
2018-01-12T13:25:44.547Z,86.32
2018-01-12T13:28:12.086Z,86.13
2018-01-12T13:30:39.630Z,85.51
2018-01-12T13:33:07.198Z,85.16
2018-01-12T13:35:34.915Z,84.94
2018-01-12T13:38:02.502Z,84.88
2018-01-12T13:40:30.151Z,84.68
2018-01-12T13:42:57.735Z,84.94
2018-01-12T13:45:25.282Z,84.77
2018-01-12T13:47:52.807Z,85.18
2018-01-12T13:50:20.523Z,84.44
2018-01-12T13:52:48.539Z,84.52
2018-01-12T13:55:16.082Z,84.22
2018-01-12T13:57:43.630Z,83.95
2018-01-12T14:00:11.293Z,84.18
2018-01-12T14:02:38.897Z,84.54
2018-01-12T14:05:06.471Z,85.19
2018-01-12T14:07:34.011Z,85.43
2018-01-12T14:10:01.558Z,85.88
2018-01-12T14:12:29.187Z,86.29
2018-01-12T14:14:56.776Z,86.67
2018-01-12T14:17:24.320Z,85.31
2018-01-12T14:19:51.943Z,85.85
2018-01-12T14:22:19.666Z,87.18
2018-01-12T14:24:47.210Z,86.53
2018-01-12T14:27:14.822Z,86.42
2018-01-12T14:29:42.399Z,85.75
2018-01-12T14:32:09.935Z,86.04
2018-01-12T14:34:37.486Z,86.01
2018-01-12T14:37:05.034Z,86.41
2018-01-12T14:39:32.698Z,85.92
2018-01-12T14:42:00.248Z,85.86
2018-01-12T14:44:27.971Z,85.54
2018-01-12T14:46:55.639Z,85.52
2018-01-12T14:49:23.177Z,85.30
2018-01-12T14:51:50.870Z,85.53
2018-01-12T14:54:18.422Z,86.22
2018-01-12T14:56:45.983Z,86.55
2018-01-12T14:59:13.526Z,87.18
2018-01-12T15:01:41.066Z,87.99
2018-01-12T15:04:08.658Z,87.81
2018-01-12T15:06:36.219Z,87.74
2018-01-12T15:09:03.870Z,87.95
2018-01-12T15:11:31.514Z,87.96
2018-01-12T15:13:59.042Z,88.00
2018-01-12T15:16:26.751Z,88.08
2018-01-12T15:18:54.286Z,88.03
2018-01-12T15:21:21.824Z,88.39
2018-01-12T15:23:49.373Z,88.29
2018-01-12T15:26:16.914Z,88.13
2018-01-12T15:28:44.502Z,88.22
2018-01-12T15:31:12.110Z,87.72
2018-01-12T15:33:39.655Z,88.12
2018-01-12T15:36:07.504Z,88.27
2018-01-12T15:38:35.200Z,88.44
2018-01-12T15:41:02.822Z,87.99
2018-01-12T15:43:30.509Z,88.36
2018-01-12T15:45:58.251Z,88.44
2018-01-12T15:48:25.794Z,88.37
2018-01-12T15:50:53.505Z,87.99
2018-01-12T15:53:21.316Z,87.76
2018-01-12T15:55:48.854Z,87.80
2018-01-12T15:58:16.551Z,87.98
2018-01-12T16:00:44.100Z,87.99
2018-01-12T16:03:11.642Z,87.83
2018-01-12T16:05:39.234Z,88.09
2018-01-12T16:08:06.794Z,88.04
2018-01-12T16:10:34.406Z,87.67
2018-01-12T16:13:01.965Z,87.48
2018-01-12T16:15:30.386Z,87.38
2018-01-12T16:17:58.200Z,87.03
2018-01-12T16:20:25.733Z,86.54
2018-01-12T16:22:53.269Z,86.18
2018-01-12T16:25:20.816Z,85.94
2018-01-12T16:27:48.568Z,86.31
2018-01-12T16:30:16.184Z,85.86
2018-01-12T16:32:43.714Z,86.40
2018-01-12T16:35:11.421Z,86.40
2018-01-12T16:37:38.984Z,86.64
2018-01-12T16:40:06.527Z,86.50
2018-01-12T16:42:34.126Z,86.45
2018-01-12T16:45:01.793Z,86.33
2018-01-12T16:47:29.337Z,85.96
2018-01-12T16:49:56.882Z,86.42
2018-01-12T16:52:24.410Z,86.21
2018-01-12T16:54:52.055Z,86.18
2018-01-12T16:57:19.607Z,86.27
2018-01-12T16:59:47.155Z,85.98
2018-01-12T17:02:14.823Z,86.12
2018-01-12T17:04:42.358Z,86.18
2018-01-12T17:07:10.055Z,86.29
2018-01-12T17:09:37.627Z,86.29
2018-01-12T17:12:05.390Z,86.53
2018-01-12T17:14:32.946Z,86.28
2018-01-12T17:17:00.490Z,86.38
2018-01-12T17:19:28.078Z,86.21
2018-01-12T17:21:55.624Z,86.63
2018-01-12T17:24:23.158Z,86.60
2018-01-12T17:26:50.862Z,86.66
2018-01-12T17:29:18.578Z,86.74
2018-01-12T17:31:46.214Z,87.54
2018-01-12T17:34:13.920Z,87.43
2018-01-12T17:36:41.460Z,87.58
2018-01-12T17:39:09.281Z,87.40
2018-01-12T17:41:36.771Z,86.99
2018-01-12T17:44:04.354Z,86.80
2018-01-12T17:46:31.982Z,86.91
2018-01-12T17:48:59.546Z,86.99
2018-01-12T17:51:27.107Z,86.70
2018-01-12T17:53:54.647Z,86.60
2018-01-12T17:56:22.226Z,86.61
2018-01-12T17:58:49.765Z,86.95
2018-01-12T18:01:17.513Z,86.61
2018-01-12T18:03:45.182Z,86.71
2018-01-12T18:06:12.881Z,85.86
2018-01-12T18:08:40.470Z,86.59
2018-01-12T18:11:08.022Z,86.50
2018-01-12T18:13:35.734Z,86.81
2018-01-12T18:16:03.459Z,86.93
2018-01-12T18:18:31.075Z,86.64
2018-01-12T18:20:58.671Z,86.66
2018-01-12T18:23:26.234Z,87.07
2018-01-12T18:25:53.778Z,86.66
2018-01-12T18:28:21.355Z,86.19
2018-01-12T18:30:48.890Z,86.41
2018-01-12T18:33:16.583Z,86.83
2018-01-12T18:35:44.122Z,86.40
2018-01-12T18:38:11.659Z,86.59
2018-01-12T18:40:39.198Z,86.12
2018-01-12T18:43:06.812Z,85.95
2018-01-12T18:45:34.527Z,85.99
2018-01-12T18:48:02.066Z,85.87
2018-01-12T18:50:29.801Z,85.93
2018-01-12T18:52:57.349Z,86.76
2018-01-12T18:55:24.894Z,86.18
2018-01-12T18:57:52.474Z,85.36
2018-01-12T19:00:20.273Z,85.47
2018-01-12T19:02:47.810Z,85.67
2018-01-12T19:05:15.368Z,85.86
2018-01-12T19:07:42.902Z,86.05
2018-01-12T19:10:10.647Z,85.23
2018-01-12T19:12:38.181Z,85.70
2018-01-12T19:15:05.734Z,85.97
2018-01-12T19:17:33.502Z,85.71
2018-01-12T19:20:01.070Z,85.36
2018-01-12T19:22:28.732Z,85.56
2018-01-12T19:24:56.271Z,85.42
2018-01-12T19:27:23.818Z,84.95
2018-01-12T19:29:51.366Z,85.47
2018-01-12T19:32:19.104Z,85.60
2018-01-12T19:34:46.729Z,85.41
2018-01-12T19:37:14.270Z,85.34
2018-01-12T19:39:41.855Z,85.43
2018-01-12T19:42:09.463Z,85.29
2018-01-12T19:44:37.004Z,85.11
2018-01-12T19:47:04.610Z,84.81
2018-01-12T19:49:32.221Z,85.02
2018-01-12T19:51:59.948Z,84.61
2018-01-12T19:54:27.545Z,85.39
2018-01-12T19:56:55.099Z,84.49
2018-01-12T19:59:22.692Z,85.00
2018-01-12T20:01:50.230Z,84.79
2018-01-12T20:04:17.770Z,84.54
2018-01-12T20:06:45.318Z,84.83
2018-01-12T20:09:12.878Z,85.01
2018-01-12T20:11:40.466Z,85.14
2018-01-12T20:14:08.207Z,85.18
2018-01-12T20:16:35.738Z,85.60
2018-01-12T20:19:03.446Z,84.87
2018-01-12T20:21:31.131Z,85.60
2018-01-12T20:23:58.847Z,85.17
2018-01-12T20:26:26.393Z,85.07
2018-01-12T20:28:54.019Z,84.82
2018-01-12T20:31:21.569Z,84.79
2018-01-12T20:33:49.127Z,85.24
2018-01-12T20:36:16.927Z,85.45
2018-01-12T20:38:44.644Z,85.39
2018-01-12T20:41:12.182Z,85.73
2018-01-12T20:43:39.729Z,85.21
2018-01-12T20:46:07.266Z,85.37
2018-01-12T20:48:35.033Z,85.01
2018-01-12T20:51:02.578Z,85.53
2018-01-12T20:53:30.123Z,84.91
2018-01-12T20:55:57.910Z,85.26
2018-01-12T20:58:25.462Z,84.93
2018-01-12T21:00:53.089Z,84.99
2018-01-12T21:03:20.657Z,84.73
2018-01-12T21:05:48.198Z,84.62
2018-01-12T21:08:15.746Z,84.63
2018-01-12T21:10:43.294Z,85.00
2018-01-12T21:13:10.875Z,85.04
2018-01-12T21:15:38.418Z,84.66
2018-01-12T21:18:05.963Z,84.27
2018-01-12T21:20:33.518Z,84.95
2018-01-12T21:23:01.066Z,84.34
2018-01-12T21:25:28.730Z,83.98
2018-01-12T21:27:56.271Z,84.27
2018-01-12T21:30:23.960Z,84.06
2018-01-12T21:32:51.509Z,84.35
2018-01-12T21:35:19.057Z,83.87
2018-01-12T21:37:46.653Z,84.09
2018-01-12T21:40:14.222Z,84.20
2018-01-12T21:42:41.803Z,83.59
2018-01-12T21:45:09.357Z,83.70
2018-01-12T21:47:37.072Z,84.04
2018-01-12T21:50:04.658Z,84.07
2018-01-12T21:52:32.218Z,84.38
2018-01-12T21:54:59.754Z,84.15
2018-01-12T21:57:27.296Z,84.63
2018-01-12T21:59:54.975Z,84.47
2018-01-12T22:02:22.526Z,84.47
2018-01-12T22:04:50.310Z,84.05
2018-01-12T22:07:18.127Z,84.51
2018-01-12T22:09:45.746Z,84.45
2018-01-12T22:12:13.326Z,84.39
2018-01-12T22:14:40.981Z,84.53
2018-01-12T22:17:08.517Z,84.72
2018-01-12T22:19:36.066Z,84.26
2018-01-12T22:22:03.618Z,84.47
2018-01-12T22:24:31.154Z,84.80
2018-01-12T22:26:58.706Z,84.90
2018-01-12T22:29:26.250Z,83.91
2018-01-12T22:31:53.786Z,84.87
2018-01-12T22:34:21.330Z,84.12
2018-01-12T22:36:48.885Z,84.76
2018-01-12T22:39:16.453Z,84.84
2018-01-12T22:41:44.066Z,85.58
2018-01-12T22:44:11.622Z,85.17
2018-01-12T22:46:39.225Z,84.54
2018-01-12T22:49:06.828Z,85.02
2018-01-12T22:51:34.390Z,85.27
2018-01-12T22:54:01.927Z,85.55
2018-01-12T22:56:29.682Z,84.79
2018-01-12T22:58:57.249Z,85.26
2018-01-12T23:01:24.815Z,84.76
2018-01-12T23:03:52.353Z,84.91
2018-01-12T23:06:19.929Z,85.19
2018-01-12T23:08:47.583Z,85.36
2018-01-12T23:11:15.117Z,85.08
2018-01-12T23:13:42.906Z,85.38
2018-01-12T23:16:10.454Z,84.90
2018-01-12T23:18:38.066Z,85.54
2018-01-12T23:21:05.766Z,85.38
2018-01-12T23:23:33.383Z,85.39
2018-01-12T23:26:00.934Z,85.53
2018-01-12T23:28:28.485Z,85.02
2018-01-12T23:30:56.122Z,85.22
2018-01-12T23:33:23.657Z,85.03
2018-01-12T23:35:51.213Z,85.33
2018-01-12T23:38:18.887Z,84.98
2018-01-12T23:40:46.422Z,84.87
2018-01-12T23:43:14.221Z,85.31
2018-01-12T23:45:41.838Z,84.65
2018-01-12T23:48:09.559Z,85.31
2018-01-12T23:50:37.162Z,84.85
2018-01-12T23:53:04.758Z,84.82
2018-01-12T23:55:32.414Z,84.45
2018-01-12T23:57:59.962Z,84.58
